createdAt,value
2019-03-08T00:00:30.103Z,0.00
2019-03-08T00:01:30.103Z,0.00
2019-03-08T00:02:30.137Z,0.00
2019-03-08T00:03:30.133Z,0.00
2019-03-08T00:04:30.103Z,0.00
2019-03-08T00:05:30.132Z,0.00
2019-03-08T00:06:30.038Z,0.00
2019-03-08T00:07:30.003Z,0.00
2019-03-08T00:08:30.030Z,0.00
2019-03-08T00:09:30.036Z,0.00
2019-03-08T00:10:29.972Z,0.00
2019-03-08T00:11:29.964Z,0.00
2019-03-08T00:12:29.983Z,0.00
2019-03-08T00:13:29.936Z,0.00
2019-03-08T00:14:29.947Z,0.00
2019-03-08T00:15:29.949Z,0.00
2019-03-08T00:16:29.961Z,0.00
2019-03-08T00:17:29.926Z,0.00
2019-03-08T00:18:30.029Z,0.00
2019-03-08T00:19:29.869Z,0.00
2019-03-08T00:20:29.903Z,0.00
2019-03-08T00:21:29.852Z,0.00
2019-03-08T00:22:29.869Z,0.00
2019-03-08T00:23:29.836Z,0.00
2019-03-08T00:24:29.862Z,0.00
2019-03-08T00:25:29.807Z,0.00
2019-03-08T00:26:29.818Z,0.00
2019-03-08T00:27:29.788Z,0.00
2019-03-08T00:28:29.887Z,0.00
2019-03-08T00:29:29.789Z,0.00
2019-03-08T00:30:29.816Z,0.00
2019-03-08T00:31:29.776Z,0.00
2019-03-08T00:32:29.849Z,0.00
2019-03-08T00:33:29.745Z,0.00
2019-03-08T00:34:29.703Z,0.00
2019-03-08T00:35:29.749Z,0.00
2019-03-08T00:36:29.685Z,0.00
2019-03-08T00:37:29.678Z,0.00
2019-03-08T00:38:29.709Z,0.00
2019-03-08T00:39:29.651Z,0.00
2019-03-08T00:40:29.662Z,0.00
2019-03-08T00:41:29.630Z,0.00
2019-03-08T00:42:29.621Z,0.00
2019-03-08T00:43:29.625Z,0.00
2019-03-08T00:44:29.661Z,0.00
2019-03-08T00:45:29.660Z,0.00
2019-03-08T00:46:29.600Z,0.00
2019-03-08T00:47:29.571Z,0.00
2019-03-08T00:48:29.558Z,0.00
2019-03-08T00:49:29.542Z,0.00
2019-03-08T00:50:29.572Z,0.00
2019-03-08T00:51:29.560Z,0.00
2019-03-08T00:52:29.543Z,0.00
2019-03-08T00:53:29.511Z,0.00
2019-03-08T00:54:29.490Z,0.00
2019-03-08T00:55:29.595Z,0.00
2019-03-08T00:56:29.495Z,0.00
2019-03-08T00:57:29.472Z,0.00
2019-03-08T00:58:29.465Z,0.00
2019-03-08T00:59:29.450Z,0.00
2019-03-08T01:00:29.429Z,0.00
2019-03-08T01:01:29.422Z,0.00
2019-03-08T01:02:29.424Z,0.00
2019-03-08T01:03:29.451Z,0.00
2019-03-08T01:04:29.406Z,0.00
2019-03-08T01:05:30.259Z,0.00
2019-03-08T01:06:29.463Z,0.00
2019-03-08T01:07:29.412Z,0.00
2019-03-08T01:08:29.377Z,0.00
2019-03-08T01:09:29.467Z,0.00
2019-03-08T01:10:29.376Z,0.00
2019-03-08T01:11:29.312Z,0.00
2019-03-08T01:12:29.349Z,0.00
2019-03-08T01:13:29.319Z,0.00
2019-03-08T01:14:29.303Z,0.00
2019-03-08T01:15:29.268Z,0.00
2019-03-08T01:16:29.263Z,0.00
2019-03-08T01:17:29.291Z,0.00
2019-03-08T01:18:29.235Z,0.00
2019-03-08T01:19:29.249Z,0.00
2019-03-08T01:20:29.262Z,0.00
2019-03-08T01:21:29.263Z,0.00
2019-03-08T01:22:29.195Z,0.00
2019-03-08T01:23:29.201Z,0.00
2019-03-08T01:24:29.193Z,0.00
2019-03-08T01:25:29.191Z,0.00
2019-03-08T01:26:29.186Z,0.00
2019-03-08T01:27:29.210Z,0.00
2019-03-08T01:28:29.143Z,0.00
2019-03-08T01:29:29.147Z,0.00
2019-03-08T01:30:29.111Z,0.00
2019-03-08T01:31:29.102Z,0.00
2019-03-08T01:32:29.113Z,0.00
2019-03-08T01:33:29.181Z,0.00
2019-03-08T01:34:29.094Z,0.00
2019-03-08T01:35:29.069Z,0.00
2019-03-08T01:36:29.085Z,0.00
2019-03-08T01:37:29.038Z,0.00
2019-03-08T01:38:29.128Z,0.00
2019-03-08T01:39:29.030Z,0.00
2019-03-08T01:40:29.054Z,0.00
2019-03-08T01:41:29.043Z,0.00
2019-03-08T01:42:28.996Z,0.00
2019-03-08T01:43:28.989Z,0.00
2019-03-08T01:44:28.980Z,0.00
2019-03-08T01:45:28.950Z,0.00
2019-03-08T01:46:29.078Z,0.00
2019-03-08T01:47:29.110Z,0.00
2019-03-08T01:48:28.984Z,0.00
2019-03-08T01:49:28.943Z,0.00
2019-03-08T01:50:28.940Z,0.00
2019-03-08T01:51:28.939Z,0.00
2019-03-08T01:52:28.875Z,0.00
2019-03-08T01:53:28.868Z,0.00
2019-03-08T01:54:28.926Z,0.00
2019-03-08T01:55:28.860Z,0.00
2019-03-08T01:56:28.873Z,0.00
2019-03-08T01:57:28.831Z,0.00
2019-03-08T01:58:28.866Z,0.00
2019-03-08T01:59:28.909Z,0.00
2019-03-08T02:00:28.789Z,0.00
2019-03-08T02:01:28.793Z,0.00
2019-03-08T02:02:28.871Z,0.00
2019-03-08T02:03:28.796Z,0.00
2019-03-08T02:04:28.753Z,0.00
2019-03-08T02:05:28.752Z,0.00
2019-03-08T02:06:28.848Z,0.00
2019-03-08T02:07:28.717Z,0.00
2019-03-08T02:08:28.736Z,0.00
2019-03-08T02:09:28.740Z,0.00
2019-03-08T02:10:28.752Z,0.00
2019-03-08T02:11:28.679Z,0.00
2019-03-08T02:12:28.770Z,0.00
2019-03-08T02:13:28.731Z,0.00
2019-03-08T02:14:28.676Z,0.00
2019-03-08T02:15:28.654Z,0.00
2019-03-08T02:16:29.278Z,0.00
2019-03-08T02:17:28.718Z,0.00
2019-03-08T02:18:28.612Z,0.00
2019-03-08T02:19:28.644Z,0.00
2019-03-08T02:20:28.707Z,0.00
2019-03-08T02:21:28.592Z,0.00
2019-03-08T02:22:28.610Z,0.00
2019-03-08T02:23:28.546Z,0.00
2019-03-08T02:24:28.602Z,0.00
2019-03-08T02:25:28.668Z,0.00
2019-03-08T02:26:28.547Z,0.00
2019-03-08T02:27:28.567Z,0.00
2019-03-08T02:28:28.503Z,0.00
2019-03-08T02:29:28.664Z,0.00
2019-03-08T02:30:28.547Z,0.00
2019-03-08T02:31:28.585Z,0.00
2019-03-08T02:32:28.466Z,0.00
2019-03-08T02:33:28.472Z,0.00
2019-03-08T02:34:28.446Z,0.00
2019-03-08T02:35:28.509Z,0.00
2019-03-08T02:36:28.431Z,0.00
2019-03-08T02:37:28.426Z,0.00
2019-03-08T02:38:29.268Z,0.00
2019-03-08T02:39:28.437Z,0.00
2019-03-08T02:40:28.470Z,0.00
2019-03-08T02:41:28.388Z,0.00
2019-03-08T02:42:28.383Z,0.00
2019-03-08T02:43:28.352Z,0.00
2019-03-08T02:44:28.344Z,0.00
2019-03-08T02:45:28.344Z,0.00
2019-03-08T02:46:28.338Z,0.00
2019-03-08T02:47:28.344Z,0.00
2019-03-08T02:48:28.310Z,0.00
2019-03-08T02:49:28.310Z,0.00
2019-03-08T02:50:28.318Z,0.00
2019-03-08T02:51:28.303Z,0.00
2019-03-08T02:52:28.390Z,0.00
2019-03-08T02:53:28.259Z,0.00
2019-03-08T02:54:28.233Z,0.00
2019-03-08T02:55:28.212Z,0.00
2019-03-08T02:56:28.255Z,0.00
2019-03-08T02:57:28.211Z,0.00
2019-03-08T02:58:28.183Z,0.00
2019-03-08T02:59:28.213Z,0.00
2019-03-08T03:00:28.168Z,0.00
2019-03-08T03:01:28.186Z,0.00
2019-03-08T03:02:28.177Z,0.00
2019-03-08T03:03:28.179Z,0.00
2019-03-08T03:04:28.234Z,0.00
2019-03-08T03:05:28.110Z,0.00
2019-03-08T03:06:28.178Z,0.00
2019-03-08T03:07:28.108Z,0.00
2019-03-08T03:08:28.080Z,0.00
2019-03-08T03:09:28.102Z,0.00
2019-03-08T03:10:28.124Z,0.00
2019-03-08T03:11:28.065Z,0.00
2019-03-08T03:12:28.191Z,0.00
2019-03-08T03:13:28.020Z,0.00
2019-03-08T03:14:28.094Z,0.00
2019-03-08T03:15:28.051Z,0.00
2019-03-08T03:16:27.993Z,0.00
2019-03-08T03:17:28.022Z,0.00
2019-03-08T03:18:27.983Z,0.00
2019-03-08T03:19:28.006Z,0.00
2019-03-08T03:20:28.021Z,0.00
2019-03-08T03:21:27.944Z,0.00
2019-03-08T03:22:28.002Z,0.00
2019-03-08T03:23:27.984Z,0.00
2019-03-08T03:24:27.908Z,0.00
2019-03-08T03:25:27.908Z,0.00
2019-03-08T03:26:27.896Z,0.00
2019-03-08T03:27:27.918Z,0.00
2019-03-08T03:28:27.939Z,0.00
2019-03-08T03:29:27.878Z,0.00
2019-03-08T03:30:27.893Z,0.00
2019-03-08T03:31:27.828Z,0.00
2019-03-08T03:32:27.940Z,0.00
2019-03-08T03:33:28.033Z,0.00
2019-03-08T03:34:27.795Z,0.00
2019-03-08T03:35:27.826Z,0.00
2019-03-08T03:36:27.874Z,0.00
2019-03-08T03:37:27.754Z,0.00
2019-03-08T03:38:27.756Z,0.00
2019-03-08T03:39:27.740Z,0.00
2019-03-08T03:40:27.777Z,0.00
2019-03-08T03:41:27.745Z,0.00
2019-03-08T03:42:27.711Z,0.00
2019-03-08T03:43:27.709Z,0.00
2019-03-08T03:44:27.764Z,0.00
2019-03-08T03:45:27.696Z,0.00
2019-03-08T03:46:27.704Z,0.00
2019-03-08T03:47:27.668Z,0.00
2019-03-08T03:48:27.678Z,0.00
2019-03-08T03:49:27.668Z,0.00
2019-03-08T03:50:27.697Z,0.00
2019-03-08T03:51:27.626Z,0.00
2019-03-08T03:52:27.683Z,0.00
2019-03-08T03:53:27.590Z,0.00
2019-03-08T03:54:27.827Z,0.00
2019-03-08T03:55:27.615Z,0.00
2019-03-08T03:56:27.667Z,0.00
2019-03-08T03:57:27.558Z,0.00
2019-03-08T03:58:27.576Z,0.00
2019-03-08T03:59:27.545Z,0.00
2019-03-08T04:00:27.581Z,0.00
2019-03-08T04:01:27.512Z,0.00
2019-03-08T04:02:27.535Z,0.00
2019-03-08T04:03:27.500Z,0.00
2019-03-08T04:04:27.519Z,0.00
2019-03-08T04:05:27.497Z,0.00
2019-03-08T04:06:27.531Z,0.00
2019-03-08T04:07:27.461Z,0.00
2019-03-08T04:08:27.431Z,0.00
2019-03-08T04:09:27.458Z,0.00
2019-03-08T04:10:27.462Z,0.00
2019-03-08T04:11:27.466Z,0.00
2019-03-08T04:12:27.426Z,0.00
2019-03-08T04:13:27.419Z,0.00
2019-03-08T04:14:27.436Z,0.00
2019-03-08T04:15:27.712Z,0.00
2019-03-08T04:16:27.359Z,0.00
2019-03-08T04:17:27.347Z,0.00
2019-03-08T04:18:27.348Z,0.00
2019-03-08T04:19:27.342Z,0.00
2019-03-08T04:20:27.404Z,0.00
2019-03-08T04:21:27.302Z,0.00
2019-03-08T04:22:27.329Z,0.00
2019-03-08T04:23:27.360Z,0.00
2019-03-08T04:24:27.301Z,0.00
2019-03-08T04:25:28.285Z,0.00
2019-03-08T04:26:27.254Z,0.00
2019-03-08T04:27:27.257Z,0.00
2019-03-08T04:28:27.255Z,0.00
2019-03-08T04:29:27.245Z,0.00
2019-03-08T04:30:27.367Z,0.00
2019-03-08T04:31:27.186Z,0.00
2019-03-08T04:32:27.278Z,0.00
2019-03-08T04:33:27.209Z,0.00
2019-03-08T04:34:27.865Z,0.00
2019-03-08T04:35:27.212Z,0.00
2019-03-08T04:36:27.829Z,0.00
2019-03-08T04:37:27.213Z,0.00
2019-03-08T04:38:27.110Z,0.00
2019-03-08T04:39:27.108Z,0.00
2019-03-08T04:40:27.121Z,0.00
2019-03-08T04:41:27.107Z,0.00
2019-03-08T04:42:27.070Z,0.00
2019-03-08T04:43:27.080Z,0.00
2019-03-08T04:44:27.099Z,0.00
2019-03-08T04:45:27.103Z,0.00
2019-03-08T04:46:27.084Z,0.00
2019-03-08T04:47:27.063Z,0.00
2019-03-08T04:48:27.058Z,0.00
2019-03-08T04:49:27.021Z,0.00
2019-03-08T04:50:26.987Z,0.00
2019-03-08T04:51:27.015Z,0.00
2019-03-08T04:52:27.014Z,0.00
2019-03-08T04:53:26.978Z,0.00
2019-03-08T04:54:26.935Z,0.00
2019-03-08T04:55:26.980Z,0.00
2019-03-08T04:56:26.973Z,0.00
2019-03-08T04:57:26.965Z,0.00
2019-03-08T04:58:26.959Z,0.00
2019-03-08T04:59:26.968Z,0.00
2019-03-08T05:00:26.947Z,0.00
2019-03-08T05:01:26.962Z,0.00
2019-03-08T05:02:26.866Z,0.00
2019-03-08T05:03:27.816Z,0.00
2019-03-08T05:04:26.888Z,0.00
2019-03-08T05:05:26.825Z,0.00
2019-03-08T05:06:26.892Z,0.00
2019-03-08T05:07:26.887Z,0.00
2019-03-08T05:08:26.810Z,0.00
2019-03-08T05:09:27.740Z,0.00
2019-03-08T05:10:26.796Z,0.00
2019-03-08T05:11:26.880Z,0.00
2019-03-08T05:12:26.746Z,0.00
2019-03-08T05:13:26.806Z,0.00
2019-03-08T05:14:26.777Z,0.00
2019-03-08T05:15:26.716Z,0.00
2019-03-08T05:16:26.790Z,0.00
2019-03-08T05:17:26.819Z,0.00
2019-03-08T05:18:26.720Z,0.00
2019-03-08T05:19:26.677Z,0.00
2019-03-08T05:20:26.742Z,0.00
2019-03-08T05:21:26.728Z,0.00
2019-03-08T05:22:26.687Z,0.00
2019-03-08T05:23:26.659Z,0.00
2019-03-08T05:24:26.655Z,0.00
2019-03-08T05:25:26.626Z,0.00
2019-03-08T05:26:26.628Z,0.00
2019-03-08T05:27:26.647Z,0.00
2019-03-08T05:28:26.590Z,0.00
2019-03-08T05:29:26.588Z,0.00
2019-03-08T05:30:26.643Z,0.00
2019-03-08T05:31:26.584Z,0.00
2019-03-08T05:32:26.588Z,0.00
2019-03-08T05:33:26.541Z,0.00
2019-03-08T05:34:26.511Z,0.00
2019-03-08T05:35:26.602Z,0.00
2019-03-08T05:36:26.509Z,0.00
2019-03-08T05:37:26.559Z,4.00
2019-03-08T05:38:26.552Z,0.00
2019-03-08T05:39:26.701Z,0.00
2019-03-08T05:40:26.500Z,4.00
2019-03-08T05:41:26.487Z,4.00
2019-03-08T05:42:26.458Z,4.00
2019-03-08T05:43:26.418Z,8.00
2019-03-08T05:44:26.454Z,4.00
2019-03-08T05:45:26.431Z,8.00
2019-03-08T05:46:26.507Z,8.00
2019-03-08T05:47:26.476Z,8.00
2019-03-08T05:48:26.499Z,8.00
2019-03-08T05:49:26.436Z,8.00
2019-03-08T05:50:26.344Z,12.00
2019-03-08T05:51:26.341Z,12.00
2019-03-08T05:52:26.444Z,12.00
2019-03-08T05:53:26.322Z,12.00
2019-03-08T05:54:26.318Z,20.00
2019-03-08T05:55:26.300Z,24.00
2019-03-08T05:56:26.300Z,24.00
2019-03-08T05:57:26.298Z,32.00
2019-03-08T05:58:26.258Z,32.00
2019-03-08T05:59:26.259Z,36.00
2019-03-08T06:00:32.077Z,52.00
2019-03-08T06:01:27.236Z,44.00
2019-03-08T06:02:26.249Z,44.00
2019-03-08T06:03:26.250Z,64.00
2019-03-08T06:04:26.204Z,64.00
2019-03-08T06:05:26.236Z,76.00
2019-03-08T06:06:26.229Z,84.00
2019-03-08T06:07:26.189Z,124.00
2019-03-08T06:08:26.167Z,128.00
2019-03-08T06:09:26.161Z,160.00
2019-03-08T06:10:26.197Z,120.00
2019-03-08T06:11:26.121Z,148.00
2019-03-08T06:12:26.136Z,172.00
2019-03-08T06:13:26.117Z,208.00
2019-03-08T06:14:26.100Z,188.00
2019-03-08T06:15:26.168Z,152.00
2019-03-08T06:16:26.080Z,204.00
2019-03-08T06:17:26.174Z,200.00
2019-03-08T06:18:26.120Z,204.00
2019-03-08T06:19:26.077Z,284.00
2019-03-08T06:20:26.060Z,268.00
2019-03-08T06:21:26.023Z,348.00
2019-03-08T06:22:26.116Z,344.00
2019-03-08T06:23:26.052Z,416.00
2019-03-08T06:24:25.979Z,368.00
2019-03-08T06:25:26.037Z,484.00
2019-03-08T06:26:25.977Z,472.00
2019-03-08T06:27:25.967Z,516.00
2019-03-08T06:28:25.998Z,492.00
2019-03-08T06:29:26.274Z,420.00
2019-03-08T06:30:25.949Z,332.00
2019-03-08T06:31:26.005Z,324.00
2019-03-08T06:32:25.931Z,288.00
2019-03-08T06:33:25.889Z,236.00
2019-03-08T06:34:25.990Z,160.00
2019-03-08T06:35:25.931Z,208.00
2019-03-08T06:36:25.865Z,320.00
2019-03-08T06:37:25.885Z,296.00
2019-03-08T06:38:25.883Z,320.00
2019-03-08T06:39:25.880Z,296.00
2019-03-08T06:40:25.824Z,300.00
2019-03-08T06:41:25.900Z,412.00
2019-03-08T06:42:25.844Z,252.00
2019-03-08T06:43:25.787Z,348.00
2019-03-08T06:44:25.838Z,420.00
2019-03-08T06:45:25.803Z,524.00
2019-03-08T06:46:25.771Z,568.00
2019-03-08T06:47:25.808Z,760.00
2019-03-08T06:48:25.747Z,832.00
2019-03-08T06:49:25.754Z,700.00
2019-03-08T06:50:25.713Z,728.00
2019-03-08T06:51:25.705Z,824.00
2019-03-08T06:52:25.729Z,1048.00
2019-03-08T06:53:25.748Z,1008.00
2019-03-08T06:54:25.666Z,960.00
2019-03-08T06:55:25.676Z,1004.00
2019-03-08T06:56:25.679Z,912.00
2019-03-08T06:57:25.683Z,972.00
2019-03-08T06:58:25.623Z,1076.00
2019-03-08T06:59:25.690Z,960.00
2019-03-08T07:00:25.616Z,1004.00
2019-03-08T07:01:25.616Z,1344.00
2019-03-08T07:02:25.596Z,1316.00
2019-03-08T07:03:25.781Z,1428.00
2019-03-08T07:04:25.579Z,1132.00
2019-03-08T07:05:25.644Z,1092.00
2019-03-08T07:06:25.554Z,1480.00
2019-03-08T07:07:25.571Z,1792.00
2019-03-08T07:08:25.536Z,1532.00
2019-03-08T07:09:25.563Z,1280.00
2019-03-08T07:10:25.502Z,1416.00
2019-03-08T07:11:25.538Z,1280.00
2019-03-08T07:12:25.528Z,916.00
2019-03-08T07:13:25.498Z,780.00
2019-03-08T07:14:25.464Z,692.00
2019-03-08T07:15:25.480Z,756.00
2019-03-08T07:16:25.450Z,892.00
2019-03-08T07:17:25.570Z,696.00
2019-03-08T07:18:25.416Z,700.00
2019-03-08T07:19:25.509Z,636.00
2019-03-08T07:20:25.484Z,592.00
2019-03-08T07:21:25.400Z,752.00
2019-03-08T07:22:25.415Z,1032.00
2019-03-08T07:23:28.164Z,812.00
2019-03-08T07:24:25.609Z,544.00
2019-03-08T07:25:25.393Z,704.00
2019-03-08T07:26:25.370Z,856.00
2019-03-08T07:27:25.401Z,1052.00
2019-03-08T07:28:25.367Z,976.00
2019-03-08T07:29:25.326Z,868.00
2019-03-08T07:30:25.296Z,928.00
2019-03-08T07:31:25.288Z,1248.00
2019-03-08T07:32:25.304Z,792.00
2019-03-08T07:33:25.262Z,728.00
2019-03-08T07:34:25.311Z,828.00
2019-03-08T07:35:25.260Z,840.00
2019-03-08T07:36:25.284Z,1020.00
2019-03-08T07:37:25.273Z,928.00
2019-03-08T07:38:25.253Z,932.00
2019-03-08T07:39:25.226Z,776.00
2019-03-08T07:40:25.215Z,880.00
2019-03-08T07:41:25.214Z,1688.00
2019-03-08T07:42:25.234Z,2052.00
2019-03-08T07:43:25.156Z,1996.00
2019-03-08T07:44:25.143Z,2140.00
2019-03-08T07:45:25.192Z,1612.00
2019-03-08T07:46:25.131Z,1236.00
2019-03-08T07:47:25.158Z,2036.00
2019-03-08T07:48:25.135Z,2308.00
2019-03-08T07:49:25.192Z,2360.00
2019-03-08T07:50:25.099Z,1660.00
2019-03-08T07:51:25.055Z,1236.00
2019-03-08T07:52:25.057Z,1584.00
2019-03-08T07:53:25.118Z,1556.00
2019-03-08T07:54:25.116Z,1136.00
2019-03-08T07:55:25.031Z,1128.00
2019-03-08T07:56:25.104Z,1388.00
2019-03-08T07:57:25.009Z,1508.00
2019-03-08T07:58:25.037Z,1696.00
2019-03-08T07:59:25.010Z,1584.00
2019-03-08T08:00:25.011Z,2220.00
2019-03-08T08:01:25.163Z,1988.00
2019-03-08T08:02:25.002Z,1732.00
2019-03-08T08:03:24.938Z,1640.00
2019-03-08T08:04:24.942Z,1908.00
2019-03-08T08:05:24.937Z,2272.00
2019-03-08T08:06:24.968Z,2668.00
2019-03-08T08:07:24.931Z,3244.00
2019-03-08T08:08:24.933Z,3432.00
2019-03-08T08:09:24.898Z,3492.00
2019-03-08T08:10:24.919Z,3684.00
2019-03-08T08:11:24.955Z,3784.00
2019-03-08T08:12:24.870Z,2000.00
2019-03-08T08:13:24.850Z,2028.00
2019-03-08T08:14:24.847Z,2084.00
2019-03-08T08:15:24.818Z,2768.00
2019-03-08T08:16:24.865Z,2596.00
2019-03-08T08:17:24.848Z,3620.00
2019-03-08T08:18:24.849Z,3340.00
2019-03-08T08:19:24.809Z,2720.00
2019-03-08T08:20:24.804Z,3796.00
2019-03-08T08:21:24.809Z,3320.00
2019-03-08T08:22:24.733Z,3836.00
2019-03-08T08:23:33.833Z,3336.00
2019-03-08T08:24:25.748Z,2536.00
2019-03-08T08:25:24.726Z,2180.00
2019-03-08T08:26:24.714Z,2144.00
2019-03-08T08:27:24.724Z,2484.00
2019-03-08T08:28:24.830Z,2936.00
2019-03-08T08:29:24.774Z,4132.00
2019-03-08T08:30:24.658Z,6240.00
2019-03-08T08:31:24.682Z,4988.00
2019-03-08T08:32:24.683Z,4988.00
2019-03-08T08:33:24.618Z,5816.00
2019-03-08T08:34:24.658Z,4120.00
2019-03-08T08:35:24.642Z,3440.00
2019-03-08T08:36:24.632Z,3872.00
2019-03-08T08:37:24.579Z,3592.00
2019-03-08T08:38:24.667Z,2904.00
2019-03-08T08:39:24.576Z,2464.00
2019-03-08T08:40:24.537Z,3268.00
2019-03-08T08:41:24.579Z,3224.00
2019-03-08T08:42:24.574Z,4356.00
2019-03-08T08:43:24.564Z,4748.00
2019-03-08T08:44:24.567Z,5812.00
2019-03-08T08:45:24.512Z,4672.00
2019-03-08T08:46:24.527Z,4236.00
2019-03-08T08:47:24.516Z,4456.00
2019-03-08T08:48:24.492Z,5084.00
2019-03-08T08:49:24.495Z,3732.00
2019-03-08T08:50:24.515Z,3328.00
2019-03-08T08:51:24.538Z,4076.00
2019-03-08T08:52:24.409Z,4376.00
2019-03-08T08:53:26.119Z,3360.00
2019-03-08T08:54:24.450Z,3360.00
2019-03-08T08:55:24.386Z,4000.00
2019-03-08T08:56:24.434Z,4080.00
2019-03-08T08:57:24.410Z,3184.00
2019-03-08T08:58:24.377Z,1736.00
2019-03-08T08:59:24.342Z,3432.00
2019-03-08T09:00:24.391Z,3508.00
2019-03-08T09:01:24.329Z,2760.00
2019-03-08T09:02:24.367Z,1836.00
2019-03-08T09:03:24.296Z,2652.00
2019-03-08T09:04:24.317Z,4540.00
2019-03-08T09:05:24.335Z,4132.00
2019-03-08T09:06:24.292Z,4268.00
2019-03-08T09:07:24.257Z,4024.00
2019-03-08T09:08:24.259Z,4792.00
2019-03-08T09:09:24.292Z,5472.00
2019-03-08T09:10:24.485Z,4928.00
2019-03-08T09:11:24.795Z,4592.00
2019-03-08T09:12:24.250Z,5228.00
2019-03-08T09:13:24.234Z,5588.00
2019-03-08T09:14:24.243Z,4880.00
2019-03-08T09:15:24.211Z,4732.00
2019-03-08T09:16:24.266Z,5476.00
2019-03-08T09:17:24.197Z,5904.00
2019-03-08T09:18:24.136Z,4488.00
2019-03-08T09:19:24.199Z,4064.00
2019-03-08T09:20:24.160Z,4516.00
2019-03-08T09:21:24.102Z,5028.00
2019-03-08T09:22:24.170Z,6512.00
2019-03-08T09:23:24.096Z,6508.00
2019-03-08T09:24:24.135Z,7536.00
2019-03-08T09:25:24.150Z,5724.00
2019-03-08T09:26:24.053Z,3516.00
2019-03-08T09:27:24.092Z,3152.00
2019-03-08T09:28:24.046Z,5264.00
2019-03-08T09:29:24.023Z,6524.00
2019-03-08T09:30:24.051Z,6184.00
2019-03-08T09:31:25.162Z,5588.00
2019-03-08T09:32:24.005Z,4284.00
2019-03-08T09:33:23.979Z,4268.00
2019-03-08T09:34:24.041Z,4112.00
2019-03-08T09:35:23.985Z,5276.00
2019-03-08T09:36:23.939Z,5020.00
2019-03-08T09:37:24.009Z,3228.00
2019-03-08T09:38:23.943Z,3444.00
2019-03-08T09:39:23.979Z,6264.00
2019-03-08T09:40:23.930Z,7228.00
2019-03-08T09:41:23.893Z,7996.00
2019-03-08T09:42:23.895Z,6832.00
2019-03-08T09:43:23.946Z,5168.00
2019-03-08T09:44:23.902Z,4688.00
2019-03-08T09:45:23.891Z,3784.00
2019-03-08T09:46:23.973Z,3320.00
2019-03-08T09:47:23.905Z,6060.00
2019-03-08T09:48:23.817Z,6768.00
2019-03-08T09:49:24.397Z,7508.00
2019-03-08T09:50:23.895Z,7128.00
2019-03-08T09:51:23.816Z,5772.00
2019-03-08T09:52:23.810Z,5888.00
2019-03-08T09:53:23.769Z,4960.00
2019-03-08T09:54:23.774Z,3680.00
2019-03-08T09:55:23.838Z,3136.00
2019-03-08T09:56:23.731Z,2388.00
2019-03-08T09:57:23.833Z,2336.00
2019-03-08T09:58:23.700Z,2276.00
2019-03-08T09:59:23.790Z,2616.00
2019-03-08T10:00:23.695Z,3740.00
2019-03-08T10:01:23.712Z,4468.00
2019-03-08T10:02:23.697Z,3192.00
2019-03-08T10:03:23.730Z,3056.00
2019-03-08T10:04:23.678Z,3348.00
2019-03-08T10:05:23.680Z,4584.00
2019-03-08T10:06:23.695Z,5684.00
2019-03-08T10:07:23.697Z,5916.00
2019-03-08T10:08:23.611Z,4888.00
2019-03-08T10:09:23.637Z,3188.00
2019-03-08T10:10:23.576Z,2824.00
2019-03-08T10:11:23.754Z,3212.00
2019-03-08T10:12:23.621Z,3320.00
2019-03-08T10:13:23.587Z,2908.00
2019-03-08T10:14:25.248Z,3260.00
2019-03-08T10:15:23.569Z,4240.00
2019-03-08T10:16:23.564Z,5324.00
2019-03-08T10:17:23.601Z,5944.00
2019-03-08T10:18:23.524Z,6032.00
2019-03-08T10:19:23.535Z,5592.00
2019-03-08T10:20:23.506Z,5340.00
2019-03-08T10:21:23.458Z,5328.00
2019-03-08T10:22:23.453Z,4724.00
2019-03-08T10:23:23.453Z,4868.00
2019-03-08T10:24:23.524Z,5404.00
2019-03-08T10:25:23.444Z,5888.00
2019-03-08T10:26:23.470Z,4940.00
2019-03-08T10:27:23.444Z,4652.00
2019-03-08T10:28:23.450Z,4848.00
2019-03-08T10:29:23.377Z,5452.00
2019-03-08T10:30:23.371Z,6308.00
2019-03-08T10:31:23.476Z,6128.00
2019-03-08T10:32:23.359Z,5364.00
2019-03-08T10:33:23.374Z,5868.00
2019-03-08T10:34:24.273Z,6628.00
2019-03-08T10:35:24.178Z,6508.00
2019-03-08T10:36:23.342Z,4780.00
2019-03-08T10:37:23.619Z,3968.00
2019-03-08T10:38:23.297Z,4044.00
2019-03-08T10:39:23.413Z,3528.00
2019-03-08T10:40:23.260Z,3052.00
2019-03-08T10:41:23.245Z,2856.00
2019-03-08T10:42:23.289Z,3320.00
2019-03-08T10:43:23.378Z,4516.00
2019-03-08T10:44:23.260Z,5312.00
2019-03-08T10:45:23.269Z,5648.00
2019-03-08T10:46:23.266Z,6968.00
2019-03-08T10:47:23.186Z,7964.00
2019-03-08T10:48:23.181Z,7556.00
2019-03-08T10:49:23.184Z,6536.00
2019-03-08T10:50:23.170Z,4980.00
2019-03-08T10:51:23.134Z,4564.00
2019-03-08T10:52:23.134Z,3984.00
2019-03-08T10:53:23.165Z,4088.00
2019-03-08T10:54:23.110Z,4176.00
2019-03-08T10:55:23.322Z,4712.00
2019-03-08T10:56:23.123Z,5564.00
2019-03-08T10:57:23.097Z,5248.00
2019-03-08T10:58:23.061Z,5460.00
2019-03-08T10:59:23.058Z,5028.00
2019-03-08T11:00:23.052Z,4340.00
2019-03-08T11:01:23.100Z,4096.00
2019-03-08T11:02:23.044Z,4476.00
2019-03-08T11:03:23.038Z,4824.00
2019-03-08T11:04:22.996Z,3632.00
2019-03-08T11:05:23.007Z,2996.00
2019-03-08T11:06:22.974Z,3392.00
2019-03-08T11:07:22.973Z,3716.00
2019-03-08T11:08:29.594Z,3016.00
2019-03-08T11:09:22.978Z,3092.00
2019-03-08T11:10:22.975Z,4500.00
2019-03-08T11:11:22.920Z,4928.00
2019-03-08T11:12:22.913Z,4528.00
2019-03-08T11:13:22.904Z,4328.00
2019-03-08T11:14:22.893Z,4492.00
2019-03-08T11:15:24.667Z,3452.00
2019-03-08T11:16:24.972Z,3712.00
2019-03-08T11:17:22.888Z,4568.00
2019-03-08T11:18:22.851Z,5508.00
2019-03-08T11:19:22.842Z,4812.00
2019-03-08T11:20:22.898Z,3716.00
2019-03-08T11:21:22.843Z,3920.00
2019-03-08T11:22:22.843Z,4072.00
2019-03-08T11:23:22.804Z,4004.00
2019-03-08T11:24:22.792Z,3956.00
2019-03-08T11:25:22.773Z,4056.00
2019-03-08T11:26:22.812Z,3504.00
2019-03-08T11:27:22.770Z,3968.00
2019-03-08T11:28:22.895Z,5032.00
2019-03-08T11:29:22.741Z,5688.00
2019-03-08T11:30:22.719Z,4776.00
2019-03-08T11:31:22.714Z,6092.00
2019-03-08T11:32:23.480Z,7852.00
2019-03-08T11:33:22.688Z,7284.00
2019-03-08T11:34:22.697Z,7832.00
2019-03-08T11:35:22.673Z,7652.00
2019-03-08T11:36:22.670Z,6812.00
2019-03-08T11:37:22.642Z,5572.00
2019-03-08T11:38:22.854Z,5136.00
2019-03-08T11:39:22.622Z,5780.00
2019-03-08T11:40:22.610Z,6316.00
2019-03-08T11:41:22.610Z,5420.00
2019-03-08T11:42:22.608Z,4576.00
2019-03-08T11:43:22.607Z,3772.00
2019-03-08T11:44:22.569Z,3688.00
2019-03-08T11:45:22.558Z,3464.00
2019-03-08T11:46:22.549Z,3656.00
2019-03-08T11:47:22.561Z,4656.00
2019-03-08T11:48:22.526Z,6996.00
2019-03-08T11:49:22.567Z,7400.00
2019-03-08T11:50:22.531Z,8156.00
2019-03-08T11:51:22.493Z,8920.00
2019-03-08T11:52:22.484Z,8996.00
2019-03-08T11:53:22.486Z,8932.00
2019-03-08T11:54:22.502Z,9976.00
2019-03-08T11:55:22.502Z,10424.00
2019-03-08T11:56:22.457Z,9468.00
2019-03-08T11:57:22.431Z,8196.00
2019-03-08T11:58:22.417Z,7780.00
2019-03-08T11:59:22.424Z,8176.00
2019-03-08T12:00:22.397Z,7700.00
2019-03-08T12:01:22.411Z,7504.00
2019-03-08T12:02:22.376Z,7704.00
2019-03-08T12:03:22.365Z,7724.00
2019-03-08T12:04:22.356Z,7460.00
2019-03-08T12:05:22.363Z,7460.00
2019-03-08T12:06:22.333Z,7212.00
2019-03-08T12:07:22.338Z,6132.00
2019-03-08T12:08:22.316Z,4900.00
2019-03-08T12:09:22.301Z,3808.00
2019-03-08T12:10:22.293Z,3964.00
2019-03-08T12:11:22.299Z,3552.00
2019-03-08T12:12:22.316Z,2960.00
2019-03-08T12:13:22.290Z,2512.00
2019-03-08T12:14:22.250Z,2512.00
2019-03-08T12:15:22.239Z,3024.00
2019-03-08T12:16:22.228Z,3464.00
2019-03-08T12:17:22.221Z,4080.00
2019-03-08T12:18:22.211Z,5108.00
2019-03-08T12:19:22.229Z,6552.00
2019-03-08T12:20:22.208Z,8336.00
2019-03-08T12:21:22.270Z,9104.00
2019-03-08T12:22:22.165Z,9336.00
2019-03-08T12:23:22.172Z,9012.00
2019-03-08T12:24:22.144Z,9220.00
2019-03-08T12:25:22.156Z,10224.00
2019-03-08T12:26:22.137Z,8848.00
2019-03-08T12:27:22.124Z,7368.00
2019-03-08T12:28:22.103Z,6340.00
2019-03-08T12:29:22.109Z,6480.00
2019-03-08T12:30:22.116Z,6008.00
2019-03-08T12:31:22.069Z,5468.00
2019-03-08T12:32:23.511Z,5112.00
2019-03-08T12:33:22.061Z,5928.00
2019-03-08T12:34:22.056Z,5408.00
2019-03-08T12:35:22.075Z,5876.00
2019-03-08T12:36:22.018Z,6284.00
2019-03-08T12:37:22.012Z,6448.00
2019-03-08T12:38:21.997Z,5752.00
2019-03-08T12:39:22.031Z,5672.00
2019-03-08T12:40:21.988Z,5164.00